createdAt,value
2022-09-18T00:01:59.639Z,12.20
2022-09-18T00:07:04.164Z,12.30
2022-09-18T00:12:07.457Z,12.30
2022-09-18T00:17:10.559Z,12.30
2022-09-18T00:22:15.005Z,12.30
2022-09-18T00:27:18.063Z,12.30
2022-09-18T00:32:21.133Z,12.30
2022-09-18T00:37:25.583Z,12.30
2022-09-18T00:42:28.730Z,12.30
2022-09-18T00:47:34.909Z,12.30
2022-09-18T00:52:51.065Z,12.30
2022-09-18T00:57:57.567Z,12.30
2022-09-18T01:03:02.016Z,12.20
2022-09-18T01:08:20.206Z,12.10
2022-09-18T01:13:31.760Z,12.00
2022-09-18T01:18:44.858Z,12.00
2022-09-18T01:24:15.225Z,11.90
2022-09-18T01:29:26.663Z,11.90
2022-09-18T01:34:35.685Z,11.90
2022-09-18T01:39:42.393Z,11.90
2022-09-18T01:44:48.656Z,11.90
2022-09-18T01:49:54.965Z,12.00
2022-09-18T01:55:01.412Z,12.10
2022-09-18T02:00:09.944Z,12.10
2022-09-18T02:05:21.679Z,12.20
2022-09-18T02:10:26.654Z,12.20
2022-09-18T02:15:36.912Z,12.20
2022-09-18T02:20:44.470Z,12.10
2022-09-18T02:25:52.553Z,12.20
2022-09-18T02:30:58.481Z,12.20
2022-09-18T02:36:25.897Z,12.20
2022-09-18T02:41:41.405Z,12.30
2022-09-18T02:46:58.622Z,12.30
2022-09-18T02:52:05.525Z,12.30
2022-09-18T02:57:15.259Z,12.30
2022-09-18T03:02:22.908Z,12.20
2022-09-18T03:07:26.288Z,12.20
2022-09-18T03:12:29.378Z,12.20
2022-09-18T03:17:33.807Z,12.20
2022-09-18T03:22:36.973Z,12.20
2022-09-18T03:27:40.097Z,12.20
2022-09-18T03:32:44.516Z,12.20
2022-09-18T03:37:47.582Z,12.20
2022-09-18T03:42:50.834Z,12.20
2022-09-18T03:47:55.313Z,12.30
2022-09-18T03:52:58.512Z,12.30
2022-09-18T03:58:01.657Z,12.30
2022-09-18T04:03:06.482Z,12.30
2022-09-18T04:08:09.677Z,12.30
2022-09-18T04:13:12.771Z,12.30
2022-09-18T04:18:17.273Z,12.30
2022-09-18T04:23:20.720Z,12.30
2022-09-18T04:28:26.446Z,12.20
2022-09-18T04:33:31.045Z,12.20
2022-09-18T04:38:34.105Z,12.30
2022-09-18T04:43:37.178Z,12.30
2022-09-18T04:48:41.797Z,12.20
2022-09-18T04:53:44.867Z,12.20
2022-09-18T04:58:47.956Z,12.20
2022-09-18T05:03:52.423Z,12.20
2022-09-18T05:08:55.533Z,12.20
2022-09-18T05:13:58.690Z,12.10
2022-09-18T05:19:03.156Z,12.10
2022-09-18T05:24:06.557Z,12.10
2022-09-18T05:29:09.792Z,12.10
2022-09-18T05:34:14.237Z,12.10
2022-09-18T05:39:17.866Z,12.10
2022-09-18T05:44:21.267Z,12.10
2022-09-18T05:49:25.789Z,12.10
2022-09-18T05:54:28.874Z,12.10
2022-09-18T05:59:31.908Z,12.20
2022-09-18T06:04:36.440Z,12.20
2022-09-18T06:09:39.789Z,12.30
2022-09-18T06:14:42.866Z,12.30
2022-09-18T06:19:47.414Z,12.40
2022-09-18T06:24:50.571Z,12.50
2022-09-18T06:29:54.161Z,12.50
2022-09-18T06:34:58.673Z,12.60
2022-09-18T06:40:01.980Z,12.60
2022-09-18T06:45:05.807Z,12.60
2022-09-18T06:50:10.773Z,12.70
2022-09-18T06:55:14.246Z,12.70
2022-09-18T07:00:17.537Z,12.70
2022-09-18T07:05:22.016Z,12.70
2022-09-18T07:10:25.518Z,12.70
2022-09-18T07:15:29.266Z,12.70
2022-09-18T07:20:33.803Z,12.80
2022-09-18T07:25:37.001Z,12.80
2022-09-18T07:30:41.338Z,12.80
2022-09-18T07:35:45.829Z,12.90
2022-09-18T07:40:48.916Z,13.00
2022-09-18T07:45:51.965Z,13.00
2022-09-18T07:50:59.335Z,13.00
2022-09-18T07:56:02.985Z,13.00
2022-09-18T08:01:07.150Z,13.00
2022-09-18T08:06:11.755Z,13.00
2022-09-18T08:11:14.925Z,13.10
2022-09-18T08:16:18.457Z,13.10
2022-09-18T08:21:23.062Z,13.10
2022-09-18T08:26:26.657Z,13.20
2022-09-18T08:31:29.875Z,13.20
2022-09-18T08:36:34.423Z,13.20
2022-09-18T08:41:56.798Z,13.20
2022-09-18T08:47:05.792Z,13.20
2022-09-18T08:52:15.194Z,13.20
2022-09-18T08:57:22.330Z,13.20
2022-09-18T09:02:38.507Z,13.30
2022-09-18T09:08:05.821Z,13.30
2022-09-18T09:13:31.789Z,13.30
2022-09-18T09:18:45.375Z,13.30
2022-09-18T09:24:04.913Z,13.30
2022-09-18T09:29:15.397Z,13.30
2022-09-18T09:34:23.476Z,13.40
2022-09-18T09:39:33.117Z,13.40
2022-09-18T09:44:41.231Z,13.40
2022-09-18T09:49:51.877Z,13.50
2022-09-18T09:54:58.654Z,13.60
2022-09-18T10:00:09.494Z,13.70
2022-09-18T10:05:23.332Z,13.80
2022-09-18T10:10:34.577Z,13.80
2022-09-18T10:15:40.463Z,13.90
2022-09-18T10:20:45.437Z,14.00
2022-09-18T10:25:53.553Z,14.10
2022-09-18T10:31:00.378Z,14.10
2022-09-18T10:36:10.902Z,14.30
2022-09-18T10:41:31.468Z,14.40
2022-09-18T10:46:37.035Z,14.50
2022-09-18T10:51:40.318Z,14.60
2022-09-18T10:56:44.905Z,14.70
2022-09-18T11:01:48.080Z,14.80
2022-09-18T11:06:52.505Z,14.80
2022-09-18T11:11:57.157Z,14.90
2022-09-18T11:17:03.117Z,14.90
2022-09-18T11:22:08.370Z,15.00
2022-09-18T11:27:21.640Z,15.10
2022-09-18T11:32:26.949Z,15.10
2022-09-18T11:37:41.489Z,15.10
2022-09-18T11:42:48.917Z,15.10
2022-09-18T11:47:58.555Z,15.10
2022-09-18T11:53:06.739Z,15.00
2022-09-18T11:58:17.852Z,15.00
2022-09-18T12:03:25.845Z,15.00
2022-09-18T12:08:41.293Z,15.10
2022-09-18T12:13:54.365Z,15.10
2022-09-18T12:19:03.933Z,15.20
2022-09-18T12:24:13.873Z,15.20
2022-09-18T12:29:28.754Z,15.30
2022-09-18T12:34:40.712Z,15.30
2022-09-18T12:40:05.697Z,15.30
2022-09-18T12:45:37.198Z,15.30
2022-09-18T12:50:55.957Z,15.30
2022-09-18T12:56:15.732Z,15.30
2022-09-18T13:01:28.141Z,15.40
2022-09-18T13:06:39.273Z,15.50
2022-09-18T13:11:47.968Z,15.50
2022-09-18T13:16:57.699Z,15.60
2022-09-18T13:22:06.848Z,15.70
2022-09-18T13:27:13.206Z,15.70
2022-09-18T13:32:20.351Z,15.70
2022-09-18T13:37:26.008Z,15.70
2022-09-18T13:42:31.453Z,15.70
2022-09-18T13:47:58.659Z,15.80
2022-09-18T13:53:04.055Z,15.80
2022-09-18T13:58:39.372Z,15.90
2022-09-18T14:03:44.127Z,16.00
2022-09-18T14:08:47.272Z,16.00
2022-09-18T14:13:54.381Z,16.10
2022-09-18T14:19:04.054Z,16.10
2022-09-18T14:24:37.641Z,16.20
2022-09-18T14:29:41.277Z,16.30
2022-09-18T14:34:45.736Z,16.30
2022-09-18T14:39:49.057Z,16.30
2022-09-18T14:44:58.794Z,16.40
2022-09-18T14:50:03.290Z,16.40
2022-09-18T14:55:12.019Z,16.40
2022-09-18T15:00:20.124Z,16.50
2022-09-18T15:05:26.304Z,16.50
2022-09-18T15:10:29.953Z,16.50
2022-09-18T15:15:35.296Z,16.50
2022-09-18T15:20:47.599Z,16.40
2022-09-18T15:25:54.597Z,16.40
2022-09-18T15:31:00.479Z,16.30
2022-09-18T15:36:06.197Z,16.30
2022-09-18T15:41:24.239Z,16.30
2022-09-18T15:46:30.536Z,16.20
2022-09-18T15:51:38.598Z,16.20
2022-09-18T15:56:51.545Z,16.20
2022-09-18T16:01:54.755Z,16.10
2022-09-18T16:07:02.208Z,16.10
2022-09-18T16:12:40.951Z,16.10
2022-09-18T16:18:03.824Z,16.00
2022-09-18T16:23:20.922Z,16.00
2022-09-18T16:28:26.990Z,15.90
2022-09-18T16:33:32.462Z,15.90
2022-09-18T16:38:37.046Z,15.90
2022-09-18T16:43:40.120Z,15.90
2022-09-18T16:48:43.325Z,15.90
2022-09-18T16:53:47.805Z,15.90
2022-09-18T16:58:52.896Z,15.80
2022-09-18T17:03:56.037Z,15.80
2022-09-18T17:09:00.573Z,15.70
2022-09-18T17:14:04.826Z,15.70
2022-09-18T17:19:08.059Z,15.60
2022-09-18T17:24:13.219Z,15.60
2022-09-18T17:29:16.341Z,15.60
2022-09-18T17:34:19.581Z,15.60
2022-09-18T17:39:24.057Z,15.60
2022-09-18T17:44:28.073Z,15.60
2022-09-18T17:49:32.785Z,15.60
2022-09-18T17:54:37.606Z,15.50
2022-09-18T17:59:41.905Z,15.50
2022-09-18T18:04:45.188Z,15.50
2022-09-18T18:09:49.648Z,15.50
2022-09-18T18:14:52.992Z,15.50
2022-09-18T18:19:57.808Z,15.40
2022-09-18T18:25:02.589Z,15.40
2022-09-18T18:30:08.854Z,15.40
2022-09-18T18:35:12.111Z,15.40
2022-09-18T18:40:17.234Z,15.40
2022-09-18T18:45:20.639Z,15.40
2022-09-18T18:50:23.703Z,15.40
2022-09-18T18:55:28.280Z,15.30
2022-09-18T19:00:31.501Z,15.20
2022-09-18T19:05:36.264Z,15.10
2022-09-18T19:10:40.905Z,15.10
2022-09-18T19:15:43.964Z,15.10
2022-09-18T19:20:49.762Z,15.10
2022-09-18T19:25:57.146Z,15.00
2022-09-18T19:31:04.356Z,15.00
2022-09-18T19:36:08.737Z,14.90
2022-09-18T19:41:19.340Z,14.90
2022-09-18T19:46:26.597Z,14.80
2022-09-18T19:51:31.202Z,14.70
2022-09-18T19:56:42.891Z,14.70
2022-09-18T20:01:46.672Z,14.60
2022-09-18T20:06:50.081Z,14.50
2022-09-18T20:11:54.535Z,14.50
2022-09-18T20:16:57.636Z,14.40
2022-09-18T20:22:03.015Z,14.40
2022-09-18T20:27:15.412Z,14.40
2022-09-18T20:32:19.220Z,14.40
2022-09-18T20:37:24.453Z,14.30
2022-09-18T20:42:31.662Z,14.30
2022-09-18T20:47:36.595Z,14.30
2022-09-18T20:52:43.056Z,14.30
2022-09-18T20:57:47.943Z,14.30
2022-09-18T21:02:53.331Z,14.30
2022-09-18T21:07:59.817Z,14.20
2022-09-18T21:13:05.054Z,14.20
2022-09-18T21:18:11.195Z,14.10
2022-09-18T21:23:31.676Z,14.00
2022-09-18T21:28:36.335Z,13.90
2022-09-18T21:33:39.980Z,13.90
2022-09-18T21:38:43.229Z,13.80
2022-09-18T21:43:51.077Z,13.80
2022-09-18T21:48:54.669Z,13.70
2022-09-18T21:53:59.092Z,13.60
2022-09-18T21:59:05.371Z,13.60
2022-09-18T22:04:08.864Z,13.60
2022-09-18T22:09:14.500Z,13.50
2022-09-18T22:14:20.919Z,13.50
2022-09-18T22:19:24.093Z,13.50
2022-09-18T22:24:28.514Z,13.50
2022-09-18T22:29:35.502Z,13.50
2022-09-18T22:34:38.624Z,13.40
2022-09-18T22:39:41.795Z,13.30
2022-09-18T22:44:46.280Z,13.30
2022-09-18T22:49:49.367Z,13.20
2022-09-18T22:54:52.442Z,13.20
2022-09-18T22:59:57.921Z,13.20
2022-09-18T23:05:01.230Z,13.20
2022-09-18T23:10:08.061Z,13.20
2022-09-18T23:15:12.806Z,13.10
2022-09-18T23:20:16.425Z,13.10
2022-09-18T23:25:19.501Z,13.10
2022-09-18T23:30:25.633Z,13.00
2022-09-18T23:35:29.092Z,13.00
2022-09-18T23:40:32.251Z,13.00
2022-09-18T23:45:36.871Z,13.00
2022-09-18T23:50:43.236Z,13.00
2022-09-18T23:55:46.518Z,12.90
